sensor_id;sensor_type;location;lat;lon;timestamp;pressure;altitude;pressure_sealevel;temperature;humidity
11343;BME280;5726;42.160;24.746;2022-08-05T00:00:35;99505.38;;;28.32;42.45
11343;BME280;5726;42.160;24.746;2022-08-05T00:03:21;99514.91;;;28.20;42.32
11343;BME280;5726;42.160;24.746;2022-08-05T00:06:07;99505.75;;;28.34;42.76
11343;BME280;5726;42.160;24.746;2022-08-05T00:08:53;99502.63;;;28.32;42.81
11343;BME280;5726;42.160;24.746;2022-08-05T00:11:39;99500.31;;;28.23;42.73
11343;BME280;5726;42.160;24.746;2022-08-05T00:14:25;99494.03;;;28.23;42.34
11343;BME280;5726;42.160;24.746;2022-08-05T00:17:11;99499.56;;;28.19;43.08
11343;BME280;5726;42.160;24.746;2022-08-05T00:19:57;99499.56;;;28.19;43.14
11343;BME280;5726;42.160;24.746;2022-08-05T00:22:42;99502.31;;;28.23;42.75
11343;BME280;5726;42.160;24.746;2022-08-05T00:25:28;99496.38;;;28.24;43.45
11343;BME280;5726;42.160;24.746;2022-08-05T00:28:14;99495.56;;;28.27;42.36
11343;BME280;5726;42.160;24.746;2022-08-05T00:31:01;99492.81;;;28.27;43.62
11343;BME280;5726;42.160;24.746;2022-08-05T00:33:46;99500.72;;;28.22;43.49
11343;BME280;5726;42.160;24.746;2022-08-05T00:36:32;99497.06;;;28.39;43.12
11343;BME280;5726;42.160;24.746;2022-08-05T00:39:18;99490.91;;;28.21;43.19
11343;BME280;5726;42.160;24.746;2022-08-05T00:42:04;99487.41;;;28.13;43.92
11343;BME280;5726;42.160;24.746;2022-08-05T00:44:50;99491.59;;;28.32;43.42
11343;BME280;5726;42.160;24.746;2022-08-05T00:47:35;99486.16;;;28.21;43.75
11343;BME280;5726;42.160;24.746;2022-08-05T00:50:21;99486.59;;;28.13;43.91
11343;BME280;5726;42.160;24.746;2022-08-05T00:53:07;99490.13;;;28.17;43.98
11343;BME280;5726;42.160;24.746;2022-08-05T00:55:53;99480.69;;;28.18;43.32
11343;BME280;5726;42.160;24.746;2022-08-05T00:58:39;99481.09;;;28.13;43.59
11343;BME280;5726;42.160;24.746;2022-08-05T01:01:25;99475.97;;;28.15;43.36
11343;BME280;5726;42.160;24.746;2022-08-05T01:04:10;99483.03;;;28.16;43.60
11343;BME280;5726;42.160;24.746;2022-08-05T01:06:56;99490.13;;;28.17;43.39
11343;BME280;5726;42.160;24.746;2022-08-05T01:09:42;99487.00;;;28.08;43.63
11343;BME280;5726;42.160;24.746;2022-08-05T01:12:28;99487.00;;;28.15;43.40
11343;BME280;5726;42.160;24.746;2022-08-05T01:15:16;99487.44;;;28.03;43.83
11343;BME280;5726;42.160;24.746;2022-08-05T01:18:05;99484.28;;;28.01;43.94
11343;BME280;5726;42.160;24.746;2022-08-05T01:21:11;99478.38;;;28.06;43.92
11343;BME280;5726;42.160;24.746;2022-08-05T01:24:20;99487.03;;;28.01;43.92
11343;BME280;5726;42.160;24.746;2022-08-05T01:30:34;99481.25;;;27.82;44.67
11343;BME280;5726;42.160;24.746;2022-08-05T01:33:24;99486.28;;;28.00;44.33
11343;BME280;5726;42.160;24.746;2022-08-05T01:36:16;99489.53;;;27.85;44.45
11343;BME280;5726;42.160;24.746;2022-08-05T01:39:03;99487.97;;;27.77;45.19
11343;BME280;5726;42.160;24.746;2022-08-05T01:41:50;99485.72;;;27.55;46.63
11343;BME280;5726;42.160;24.746;2022-08-05T01:44:38;99495.25;;;27.30;47.10
11343;BME280;5726;42.160;24.746;2022-08-05T01:47:25;99487.44;;;27.14;47.33
11343;BME280;5726;42.160;24.746;2022-08-05T01:50:16;99486.63;;;27.24;47.10
11343;BME280;5726;42.160;24.746;2022-08-05T01:53:06;99485.81;;;27.24;47.05
11343;BME280;5726;42.160;24.746;2022-08-05T01:55:56;99490.50;;;27.41;46.74
11343;BME280;5726;42.160;24.746;2022-08-05T01:58:44;99486.56;;;27.42;46.64
11343;BME280;5726;42.160;24.746;2022-08-05T02:01:34;99489.72;;;27.44;46.72
11343;BME280;5726;42.160;24.746;2022-08-05T02:04:21;99482.59;;;27.46;46.61
11343;BME280;5726;42.160;24.746;2022-08-05T02:07:08;99483.78;;;27.48;46.28
11343;BME280;5726;42.160;24.746;2022-08-05T02:09:55;99485.75;;;27.51;46.52
11343;BME280;5726;42.160;24.746;2022-08-05T02:12:48;99490.16;;;27.32;47.05
11343;BME280;5726;42.160;24.746;2022-08-05T02:15:43;99480.25;;;27.51;45.74
11343;BME280;5726;42.160;24.746;2022-08-05T02:18:39;99484.72;;;26.97;47.60
11343;BME280;5726;42.160;24.746;2022-08-05T02:21:30;99491.03;;;26.94;47.81
11343;BME280;5726;42.160;24.746;2022-08-05T02:24:20;99484.78;;;26.69;47.89
11343;BME280;5726;42.160;24.746;2022-08-05T02:27:09;99486.72;;;26.58;47.83
11343;BME280;5726;42.160;24.746;2022-08-05T02:29:56;99482.03;;;26.48;48.49
11343;BME280;5726;42.160;24.746;2022-08-05T02:32:47;99480.44;;;26.51;48.51
11343;BME280;5726;42.160;24.746;2022-08-05T02:35:34;99484.38;;;26.60;48.39
11343;BME280;5726;42.160;24.746;2022-08-05T02:38:22;99483.56;;;26.77;48.23
11343;BME280;5726;42.160;24.746;2022-08-05T02:41:09;99481.97;;;26.83;48.14
11343;BME280;5726;42.160;24.746;2022-08-05T02:43:56;99483.56;;;26.60;49.05
11343;BME280;5726;42.160;24.746;2022-08-05T02:46:44;99482.00;;;26.55;49.50
11343;BME280;5726;42.160;24.746;2022-08-05T02:49:34;99483.59;;;26.49;50.16
11343;BME280;5726;42.160;24.746;2022-08-05T02:52:20;99484.00;;;26.31;50.73
11343;BME280;5726;42.160;24.746;2022-08-05T02:55:08;99488.31;;;26.32;50.88
11343;BME280;5726;42.160;24.746;2022-08-05T02:57:55;99489.50;;;26.45;50.48
11343;BME280;5726;42.160;24.746;2022-08-05T03:00:44;99486.34;;;26.53;50.23
11343;BME280;5726;42.160;24.746;2022-08-05T03:03:30;99484.00;;;26.51;50.27
11343;BME280;5726;42.160;24.746;2022-08-05T03:06:18;99491.44;;;26.41;50.25
11343;BME280;5726;42.160;24.746;2022-08-05T03:09:05;99487.53;;;26.42;50.21
11343;BME280;5726;42.160;24.746;2022-08-05T03:11:51;99486.69;;;26.27;50.09
11343;BME280;5726;42.160;24.746;2022-08-05T03:14:37;99486.34;;;26.29;49.98
11343;BME280;5726;42.160;24.746;2022-08-05T03:17:23;99489.50;;;26.45;49.28
11343;BME280;5726;42.160;24.746;2022-08-05T03:20:09;99489.03;;;26.18;50.24
11343;BME280;5726;42.160;24.746;2022-08-05T03:22:55;99496.13;;;26.05;50.82
11343;BME280;5726;42.160;24.746;2022-08-05T03:25:41;99488.97;;;25.70;51.58
11343;BME280;5726;42.160;24.746;2022-08-05T03:28:28;99490.81;;;25.42;52.46
11343;BME280;5726;42.160;24.746;2022-08-05T03:31:14;99494.75;;;25.48;51.53
11343;BME280;5726;42.160;24.746;2022-08-05T03:34:00;99497.28;;;25.02;52.56
11343;BME280;5726;42.160;24.746;2022-08-05T03:36:46;99502.06;;;25.16;51.96
11343;BME280;5726;42.160;24.746;2022-08-05T03:39:32;99496.53;;;25.09;53.05
11343;BME280;5726;42.160;24.746;2022-08-05T03:42:17;99493.00;;;25.12;52.45
11343;BME280;5726;42.160;24.746;2022-08-05T03:45:04;99494.28;;;25.35;50.71
11343;BME280;5726;42.160;24.746;2022-08-05T03:47:50;99494.28;;;25.32;51.45
11343;BME280;5726;42.160;24.746;2022-08-05T03:50:49;99499.91;;;25.59;50.49
11343;BME280;5726;42.160;24.746;2022-08-05T03:53:41;99487.47;;;26.14;49.36
11343;BME280;5726;42.160;24.746;2022-08-05T03:56:39;99494.16;;;26.16;48.85
11343;BME280;5726;42.160;24.746;2022-08-05T03:59:30;99498.44;;;26.00;48.83
11343;BME280;5726;42.160;24.746;2022-08-05T04:02:18;99493.81;;;26.39;47.66
11343;BME280;5726;42.160;24.746;2022-08-05T04:05:08;99494.22;;;26.44;47.96
11343;BME280;5726;42.160;24.746;2022-08-05T04:07:55;99491.41;;;27.03;46.31
11343;BME280;5726;42.160;24.746;2022-08-05T04:10:42;99493.78;;;26.73;46.57
11343;BME280;5726;42.160;24.746;2022-08-05T04:13:30;99493.78;;;26.87;46.60
11343;BME280;5726;42.160;24.746;2022-08-05T04:16:16;99491.31;;;27.34;45.79
11343;BME280;5726;42.160;24.746;2022-08-05T04:19:02;99490.38;;;27.75;44.78
11343;BME280;5726;42.160;24.746;2022-08-05T04:21:48;99484.63;;;28.17;43.34
11343;BME280;5726;42.160;24.746;2022-08-05T04:24:34;99478.38;;;28.56;42.70
11343;BME280;5726;42.160;24.746;2022-08-05T04:27:20;99482.94;;;28.80;41.91
11343;BME280;5726;42.160;24.746;2022-08-05T04:30:07;99484.00;;;28.90;41.65
11343;BME280;5726;42.160;24.746;2022-08-05T04:32:53;99478.94;;;28.81;42.12
11343;BME280;5726;42.160;24.746;2022-08-05T04:35:40;99474.25;;;28.78;42.34
11343;BME280;5726;42.160;24.746;2022-08-05T04:38:26;99476.75;;;28.59;43.20
11343;BME280;5726;42.160;24.746;2022-08-05T04:41:11;99470.72;;;28.78;42.73
11343;BME280;5726;42.160;24.746;2022-08-05T04:43:57;99473.78;;;28.40;43.20
11343;BME280;5726;42.160;24.746;2022-08-05T04:46:43;99480.59;;;28.25;43.92
11343;BME280;5726;42.160;24.746;2022-08-05T04:49:29;99472.00;;;28.19;44.68
11343;BME280;5726;42.160;24.746;2022-08-05T04:52:15;99469.09;;;28.37;43.64
11343;BME280;5726;42.160;24.746;2022-08-05T04:55:00;99475.28;;;27.97;45.11
11343;BME280;5726;42.160;24.746;2022-08-05T04:57:46;99468.28;;;27.79;45.25
11343;BME280;5726;42.160;24.746;2022-08-05T05:00:33;99478.06;;;27.90;45.85
11343;BME280;5726;42.160;24.746;2022-08-05T05:03:19;99475.53;;;28.70;43.66
11343;BME280;5726;42.160;24.746;2022-08-05T05:06:09;99480.56;;;29.15;42.39
11343;BME280;5726;42.160;24.746;2022-08-05T05:08:54;99476.06;;;28.95;42.41
11343;BME280;5726;42.160;24.746;2022-08-05T05:11:40;99478.50;;;29.23;41.79
11343;BME280;5726;42.160;24.746;2022-08-05T05:14:26;99483.94;;;29.33;41.21
11343;BME280;5726;42.160;24.746;2022-08-05T05:17:12;99483.09;;;29.36;40.48
11343;BME280;5726;42.160;24.746;2022-08-05T05:19:57;99482.97;;;29.80;40.09
11343;BME280;5726;42.160;24.746;2022-08-05T05:22:43;99475.50;;;29.73;39.97
11343;BME280;5726;42.160;24.746;2022-08-05T05:25:29;99471.84;;;29.83;39.20
11343;BME280;5726;42.160;24.746;2022-08-05T05:28:15;99472.72;;;30.03;39.14
11343;BME280;5726;42.160;24.746;2022-08-05T05:31:01;99476.25;;;30.30;38.68
11343;BME280;5726;42.160;24.746;2022-08-05T05:33:47;99460.66;;;30.42;38.50
11343;BME280;5726;42.160;24.746;2022-08-05T05:36:32;99472.88;;;30.68;37.07
11343;BME280;5726;42.160;24.746;2022-08-05T05:39:18;99473.06;;;30.57;37.61
11343;BME280;5726;42.160;24.746;2022-08-05T05:42:04;99465.91;;;30.11;38.41
11343;BME280;5726;42.160;24.746;2022-08-05T14:13:49;99106.50;;;34.43;27.86
11343;BME280;5726;42.160;24.746;2022-08-05T14:16:15;99106.91;;;34.72;26.09
11343;BME280;5726;42.160;24.746;2022-08-05T14:18:40;99102.53;;;34.92;25.22
11343;BME280;5726;42.160;24.746;2022-08-05T14:21:06;99107.97;;;35.05;25.37
11343;BME280;5726;42.160;24.746;2022-08-05T14:23:31;99093.06;;;34.90;25.36
11343;BME280;5726;42.160;24.746;2022-08-05T14:25:57;99095.28;;;35.13;24.82
11343;BME280;5726;42.160;24.746;2022-08-05T14:28:22;99103.38;;;35.29;25.30
11343;BME280;5726;42.160;24.746;2022-08-05T14:30:48;99104.28;;;35.17;24.56
11343;BME280;5726;42.160;24.746;2022-08-05T14:33:13;99101.03;;;35.18;25.69
11343;BME280;5726;42.160;24.746;2022-08-05T14:35:39;99094.72;;;35.27;25.09
11343;BME280;5726;42.160;24.746;2022-08-05T14:38:04;99093.78;;;35.21;24.61
11343;BME280;5726;42.160;24.746;2022-08-05T14:40:29;99089.75;;;35.31;25.32
11343;BME280;5726;42.160;24.746;2022-08-05T14:42:55;99083.59;;;35.44;24.34
11343;BME280;5726;42.160;24.746;2022-08-05T14:45:20;99086.69;;;35.64;24.26
11343;BME280;5726;42.160;24.746;2022-08-05T14:47:46;99084.50;;;35.77;23.98
11343;BME280;5726;42.160;24.746;2022-08-05T14:50:11;99076.47;;;35.79;24.08
11343;BME280;5726;42.160;24.746;2022-08-05T14:52:37;99091.94;;;35.98;24.36
11343;BME280;5726;42.160;24.746;2022-08-05T14:55:03;99089.81;;;35.84;23.86
11343;BME280;5726;42.160;24.746;2022-08-05T14:57:29;99090.72;;;35.90;24.19
11343;BME280;5726;42.160;24.746;2022-08-05T14:59:54;99091.34;;;35.94;23.85
11343;BME280;5726;42.160;24.746;2022-08-05T15:02:19;99081.41;;;35.57;23.83
11343;BME280;5726;42.160;24.746;2022-08-05T15:04:45;99078.78;;;35.63;23.65
11343;BME280;5726;42.160;24.746;2022-08-05T15:07:10;99074.75;;;35.64;23.86
11343;BME280;5726;42.160;24.746;2022-08-05T15:09:36;99075.53;;;35.55;24.06
11343;BME280;5726;42.160;24.746;2022-08-05T15:12:02;99069.97;;;35.46;23.91
11343;BME280;5726;42.160;24.746;2022-08-05T15:14:27;99075.69;;;35.43;25.12
11343;BME280;5726;42.160;24.746;2022-08-05T15:16:52;99070.25;;;35.48;24.04
11343;BME280;5726;42.160;24.746;2022-08-05T15:19:18;99073.50;;;35.38;24.93
11343;BME280;5726;42.160;24.746;2022-08-05T15:21:43;99072.13;;;35.42;25.71
11343;BME280;5726;42.160;24.746;2022-08-05T15:24:09;99070.06;;;35.25;25.89
11343;BME280;5726;42.160;24.746;2022-08-05T15:26:34;99076.56;;;35.04;26.40
11343;BME280;5726;42.160;24.746;2022-08-05T15:28:59;99068.56;;;34.85;26.59
11343;BME280;5726;42.160;24.746;2022-08-05T15:31:25;99072.94;;;34.95;26.58
11343;BME280;5726;42.160;24.746;2022-08-05T15:33:51;99071.47;;;35.21;25.92
11343;BME280;5726;42.160;24.746;2022-08-05T15:36:16;99065.88;;;35.12;25.86
11343;BME280;5726;42.160;24.746;2022-08-05T15:38:41;99061.03;;;34.94;26.24
11343;BME280;5726;42.160;24.746;2022-08-05T15:41:07;99068.00;;;34.90;26.01
11343;BME280;5726;42.160;24.746;2022-08-05T15:43:32;99061.03;;;34.94;27.10
11343;BME280;5726;42.160;24.746;2022-08-05T15:46:00;99059.28;;;34.79;26.66
11343;BME280;5726;42.160;24.746;2022-08-05T15:48:25;99060.25;;;34.94;26.07
11343;BME280;5726;42.160;24.746;2022-08-05T15:50:51;99060.03;;;34.80;26.02
11343;BME280;5726;42.160;24.746;2022-08-05T15:53:16;99060.00;;;34.71;26.08
11343;BME280;5726;42.160;24.746;2022-08-05T15:55:42;99065.88;;;34.73;26.31
11343;BME280;5726;42.160;24.746;2022-08-05T15:58:09;99055.78;;;34.57;26.07
11343;BME280;5726;42.160;24.746;2022-08-05T16:00:34;99052.09;;;34.69;26.26
11343;BME280;5726;42.160;24.746;2022-08-05T16:03:00;99051.84;;;34.46;26.14
11343;BME280;5726;42.160;24.746;2022-08-05T16:05:25;99051.41;;;34.47;26.07
11343;BME280;5726;42.160;24.746;2022-08-05T16:07:50;99045.38;;;34.49;26.22
11343;BME280;5726;42.160;24.746;2022-08-05T16:10:16;99048.31;;;34.45;25.65
11343;BME280;5726;42.160;24.746;2022-08-05T16:12:41;99053.72;;;34.49;26.56
11343;BME280;5726;42.160;24.746;2022-08-05T16:15:07;99049.75;;;34.59;26.15
11343;BME280;5726;42.160;24.746;2022-08-05T16:17:34;99049.22;;;34.42;26.90
11343;BME280;5726;42.160;24.746;2022-08-05T16:19:59;99050.56;;;34.38;28.11
11343;BME280;5726;42.160;24.746;2022-08-05T16:22:25;99053.91;;;34.54;26.42
11343;BME280;5726;42.160;24.746;2022-08-05T16:24:50;99053.25;;;34.50;27.10
11343;BME280;5726;42.160;24.746;2022-08-05T16:27:16;99055.13;;;34.53;27.31
11343;BME280;5726;42.160;24.746;2022-08-05T16:29:41;99054.59;;;34.67;26.99
11343;BME280;5726;42.160;24.746;2022-08-05T16:32:07;99052.50;;;34.89;26.83
11343;BME280;5726;42.160;24.746;2022-08-05T16:34:32;99055.78;;;35.05;26.58
11343;BME280;5726;42.160;24.746;2022-08-05T16:36:58;99047.19;;;34.73;26.70
11343;BME280;5726;42.160;24.746;2022-08-05T16:39:23;99046.78;;;34.53;26.79
11343;BME280;5726;42.160;24.746;2022-08-05T16:41:49;99054.47;;;34.40;26.53
11343;BME280;5726;42.160;24.746;2022-08-05T16:44:15;99050.03;;;34.52;26.74
11343;BME280;5726;42.160;24.746;2022-08-05T16:46:42;99049.41;;;34.48;26.93
11343;BME280;5726;42.160;24.746;2022-08-05T16:49:09;99043.34;;;34.40;26.54
11343;BME280;5726;42.160;24.746;2022-08-05T16:51:37;99053.81;;;34.36;27.66
11343;BME280;5726;42.160;24.746;2022-08-05T16:54:02;99047.31;;;34.39;26.82
11343;BME280;5726;42.160;24.746;2022-08-05T16:56:29;99054.94;;;34.18;28.20
11343;BME280;5726;42.160;24.746;2022-08-05T16:58:58;99064.84;;;34.19;27.82
11343;BME280;5726;42.160;24.746;2022-08-05T17:01:25;99068.69;;;34.12;28.53
11343;BME280;5726;42.160;24.746;2022-08-05T17:03:50;99070.97;;;34.05;28.41
11343;BME280;5726;42.160;24.746;2022-08-05T17:06:16;99061.50;;;34.02;28.11
11343;BME280;5726;42.160;24.746;2022-08-05T17:08:41;99069.56;;;34.00;28.53
11343;BME280;5726;42.160;24.746;2022-08-05T17:11:08;99072.50;;;34.06;28.08
11343;BME280;5726;42.160;24.746;2022-08-05T17:13:34;99072.38;;;34.09;28.42
11343;BME280;5726;42.160;24.746;2022-08-05T17:15:59;99076.13;;;34.15;27.67
11343;BME280;5726;42.160;24.746;2022-08-05T17:18:26;99074.06;;;34.07;28.69
11343;BME280;5726;42.160;24.746;2022-08-05T17:20:52;99082.19;;;33.80;29.49
11343;BME280;5726;42.160;24.746;2022-08-05T17:23:18;99072.34;;;33.88;29.73
11343;BME280;5726;42.160;24.746;2022-08-05T17:25:43;99077.16;;;33.66;29.37
11343;BME280;5726;42.160;24.746;2022-08-05T17:28:08;99084.25;;;33.67;29.82
11343;BME280;5726;42.160;24.746;2022-08-05T17:30:34;99091.22;;;33.50;29.86
11343;BME280;5726;42.160;24.746;2022-08-05T17:32:59;99084.13;;;33.49;29.66
11343;BME280;5726;42.160;24.746;2022-08-05T17:35:25;99092.28;;;33.65;28.61
11343;BME280;5726;42.160;24.746;2022-08-05T17:37:50;99091.81;;;33.45;29.50
11343;BME280;5726;42.160;24.746;2022-08-05T17:40:17;99090.25;;;33.44;29.54
11343;BME280;5726;42.160;24.746;2022-08-05T17:42:43;99091.91;;;33.42;29.07
11343;BME280;5726;42.160;24.746;2022-08-05T17:45:09;99095.31;;;33.25;29.46
11343;BME280;5726;42.160;24.746;2022-08-05T17:47:36;99096.97;;;33.22;30.03
11343;BME280;5726;42.160;24.746;2022-08-05T17:50:02;99097.44;;;33.08;30.51
11343;BME280;5726;42.160;24.746;2022-08-05T17:52:28;99099.53;;;33.17;30.16
11343;BME280;5726;42.160;24.746;2022-08-05T17:54:54;99108.91;;;32.98;30.16
11343;BME280;5726;42.160;24.746;2022-08-05T17:57:19;99105.13;;;33.04;30.87
11343;BME280;5726;42.160;24.746;2022-08-05T17:59:45;99115.03;;;33.05;30.71
11343;BME280;5726;42.160;24.746;2022-08-05T18:02:10;99114.00;;;33.12;30.21
11343;BME280;5726;42.160;24.746;2022-08-05T18:04:36;99116.91;;;32.96;31.05
11343;BME280;5726;42.160;24.746;2022-08-05T18:07:02;99121.44;;;32.78;31.57
11343;BME280;5726;42.160;24.746;2022-08-05T18:09:27;99122.00;;;32.85;31.20
11343;BME280;5726;42.160;24.746;2022-08-05T18:11:53;99133.53;;;32.59;31.45
11343;BME280;5726;42.160;24.746;2022-08-05T18:14:18;99134.34;;;32.59;31.51
11343;BME280;5726;42.160;24.746;2022-08-05T18:16:44;99133.00;;;32.64;32.07
11343;BME280;5726;42.160;24.746;2022-08-05T18:19:09;99141.31;;;32.51;31.58
11343;BME280;5726;42.160;24.746;2022-08-05T18:21:35;99142.00;;;32.55;32.37
11343;BME280;5726;42.160;24.746;2022-08-05T18:24:01;99136.31;;;32.46;32.62
11343;BME280;5726;42.160;24.746;2022-08-05T18:26:27;99141.91;;;32.31;32.61
11343;BME280;5726;42.160;24.746;2022-08-05T18:28:52;99136.03;;;32.16;33.21
11343;BME280;5726;42.160;24.746;2022-08-05T18:31:18;99145.56;;;32.15;33.20
11343;BME280;5726;42.160;24.746;2022-08-05T18:33:47;99142.78;;;32.15;32.86
11343;BME280;5726;42.160;24.746;2022-08-05T18:36:13;99138.66;;;32.07;33.88
11343;BME280;5726;42.160;24.746;2022-08-05T18:38:39;99139.19;;;32.02;33.64
11343;BME280;5726;42.160;24.746;2022-08-05T18:41:04;99138.22;;;32.09;34.57
11343;BME280;5726;42.160;24.746;2022-08-05T18:43:32;99149.78;;;32.20;34.09
11343;BME280;5726;42.160;24.746;2022-08-05T18:45:57;99143.34;;;32.10;34.04
11343;BME280;5726;42.160;24.746;2022-08-05T18:48:23;99150.13;;;32.22;34.10
11343;BME280;5726;42.160;24.746;2022-08-05T18:50:48;99150.50;;;32.36;33.48
11343;BME280;5726;42.160;24.746;2022-08-05T18:53:32;99146.22;;;32.72;32.94
11343;BME280;5726;42.160;24.746;2022-08-05T18:55:58;99147.31;;;32.87;31.89
11343;BME280;5726;42.160;24.746;2022-08-05T18:58:23;99154.00;;;32.77;32.29
11343;BME280;5726;42.160;24.746;2022-08-05T19:00:48;99150.78;;;32.79;32.90
11343;BME280;5726;42.160;24.746;2022-08-05T19:03:14;99147.91;;;32.82;32.53
11343;BME280;5726;42.160;24.746;2022-08-05T19:05:39;99158.44;;;32.62;32.50
11343;BME280;5726;42.160;24.746;2022-08-05T19:08:06;99159.81;;;32.42;33.44
11343;BME280;5726;42.160;24.746;2022-08-05T19:10:32;99163.25;;;32.34;33.40
11343;BME280;5726;42.160;24.746;2022-08-05T19:12:57;99158.97;;;32.04;33.79
11343;BME280;5726;42.160;24.746;2022-08-05T19:15:23;99155.06;;;32.02;33.96
11343;BME280;5726;42.160;24.746;2022-08-05T19:17:49;99156.47;;;31.94;34.12
11343;BME280;5726;42.160;24.746;2022-08-05T19:20:14;99153.31;;;31.92;35.02
11343;BME280;5726;42.160;24.746;2022-08-05T19:22:43;99158.97;;;31.88;35.04
11343;BME280;5726;42.160;24.746;2022-08-05T19:25:09;99160.03;;;31.79;35.02
11343;BME280;5726;42.160;24.746;2022-08-05T19:27:35;99157.03;;;31.73;35.66
11343;BME280;5726;42.160;24.746;2022-08-05T19:30:00;99154.41;;;31.82;36.14
11343;BME280;5726;42.160;24.746;2022-08-05T19:32:28;99160.69;;;31.70;35.45
11343;BME280;5726;42.160;24.746;2022-08-05T19:34:55;99160.03;;;31.79;34.99
11343;BME280;5726;42.160;24.746;2022-08-05T19:37:21;99154.53;;;31.63;34.89
11343;BME280;5726;42.160;24.746;2022-08-05T19:39:46;99159.34;;;31.46;35.86
11343;BME280;5726;42.160;24.746;2022-08-05T19:42:12;99167.28;;;31.44;35.80
11343;BME280;5726;42.160;24.746;2022-08-05T19:44:37;99160.94;;;31.28;35.79
11343;BME280;5726;42.160;24.746;2022-08-05T19:47:02;99158.78;;;31.20;36.76
11343;BME280;5726;42.160;24.746;2022-08-05T19:49:28;99157.06;;;31.10;36.23
11343;BME280;5726;42.160;24.746;2022-08-05T19:51:53;99157.50;;;31.08;36.11
11343;BME280;5726;42.160;24.746;2022-08-05T19:54:19;99160.84;;;31.00;36.13
11343;BME280;5726;42.160;24.746;2022-08-05T19:56:44;99161.38;;;31.27;36.20
11343;BME280;5726;42.160;24.746;2022-08-05T19:59:10;99157.06;;;31.10;36.13
11343;BME280;5726;42.160;24.746;2022-08-05T20:01:36;99160.25;;;31.24;36.53
11343;BME280;5726;42.160;24.746;2022-08-05T20:04:01;99169.84;;;31.36;35.98
11343;BME280;5726;42.160;24.746;2022-08-05T20:06:27;99170.50;;;31.43;35.81
11343;BME280;5726;42.160;24.746;2022-08-05T20:08:53;99165.88;;;31.37;36.05
11343;BME280;5726;42.160;24.746;2022-08-05T20:11:19;99163.47;;;31.23;36.16
11343;BME280;5726;42.160;24.746;2022-08-05T20:13:45;99160.53;;;31.14;35.99
11343;BME280;5726;42.160;24.746;2022-08-05T20:16:11;99163.03;;;31.08;36.48
11343;BME280;5726;42.160;24.746;2022-08-05T20:18:36;99166.75;;;31.02;36.19
11343;BME280;5726;42.160;24.746;2022-08-05T20:21:04;99157.91;;;31.07;36.43
11343;BME280;5726;42.160;24.746;2022-08-05T20:23:29;99159.75;;;30.97;36.62
11343;BME280;5726;42.160;24.746;2022-08-05T20:25:55;99165.94;;;30.86;36.55
11343;BME280;5726;42.160;24.746;2022-08-05T20:28:21;99165.63;;;30.99;36.75
11343;BME280;5726;42.160;24.746;2022-08-05T20:30:46;99159.66;;;31.01;36.78
11343;BME280;5726;42.160;24.746;2022-08-05T20:33:12;99168.84;;;31.14;35.76
11343;BME280;5726;42.160;24.746;2022-08-05T20:35:37;99160.34;;;31.05;36.03
11343;BME280;5726;42.160;24.746;2022-08-05T20:38:03;99163.22;;;30.82;36.54
11343;BME280;5726;42.160;24.746;2022-08-05T20:40:28;99165.13;;;30.69;36.76
11343;BME280;5726;42.160;24.746;2022-08-05T20:42:53;99167.72;;;30.76;37.18
11343;BME280;5726;42.160;24.746;2022-08-05T20:45:19;99169.25;;;30.96;36.95
11343;BME280;5726;42.160;24.746;2022-08-05T20:47:45;99167.28;;;31.13;36.27
11343;BME280;5726;42.160;24.746;2022-08-05T20:50:10;99168.84;;;31.14;36.74
11343;BME280;5726;42.160;24.746;2022-08-05T20:52:36;99168.03;;;31.13;36.84
11343;BME280;5726;42.160;24.746;2022-08-05T20:55:04;99167.09;;;31.04;37.23
11343;BME280;5726;42.160;24.746;2022-08-05T20:57:31;99160.97;;;31.12;36.81
11343;BME280;5726;42.160;24.746;2022-08-05T20:59:56;99164.56;;;30.93;37.18
11343;BME280;5726;42.160;24.746;2022-08-05T21:02:22;99172.81;;;30.78;37.71
11343;BME280;5726;42.160;24.746;2022-08-05T21:04:47;99168.53;;;30.92;37.37
11343;BME280;5726;42.160;24.746;2022-08-05T21:07:13;99164.94;;;30.76;37.03
11343;BME280;5726;42.160;24.746;2022-08-05T21:09:38;99167.38;;;30.74;37.73
11343;BME280;5726;42.160;24.746;2022-08-05T21:12:04;99169.31;;;30.58;37.82
11343;BME280;5726;42.160;24.746;2022-08-05T21:14:29;99172.38;;;30.63;38.23
11343;BME280;5726;42.160;24.746;2022-08-05T21:16:55;99166.34;;;30.49;38.24
11343;BME280;5726;42.160;24.746;2022-08-05T21:19:20;99176.56;;;30.33;39.05
11343;BME280;5726;42.160;24.746;2022-08-05T21:21:46;99175.38;;;30.34;39.23
11343;BME280;5726;42.160;24.746;2022-08-05T21:24:11;99180.19;;;30.30;39.34
11343;BME280;5726;42.160;24.746;2022-08-05T21:26:37;99185.03;;;30.26;39.13
11343;BME280;5726;42.160;24.746;2022-08-05T21:29:02;99187.63;;;30.13;39.61
11343;BME280;5726;42.160;24.746;2022-08-05T21:31:28;99188.56;;;30.07;39.55
11343;BME280;5726;42.160;24.746;2022-08-05T21:33:53;99182.31;;;30.03;39.87
11343;BME280;5726;42.160;24.746;2022-08-05T21:36:19;99177.19;;;29.82;40.08
11343;BME280;5726;42.160;24.746;2022-08-05T21:38:46;99185.72;;;29.91;40.02
11343;BME280;5726;42.160;24.746;2022-08-05T21:41:11;99182.66;;;29.86;40.26
11343;BME280;5726;42.160;24.746;2022-08-05T21:43:37;99180.50;;;29.74;40.56
11343;BME280;5726;42.160;24.746;2022-08-05T21:46:03;99175.84;;;29.67;40.84
11343;BME280;5726;42.160;24.746;2022-08-05T21:48:28;99184.75;;;29.78;40.93
11343;BME280;5726;42.160;24.746;2022-08-05T21:50:55;99177.78;;;29.70;40.64
11343;BME280;5726;42.160;24.746;2022-08-05T21:53:21;99179.59;;;29.57;41.20
11343;BME280;5726;42.160;24.746;2022-08-05T21:55:46;99179.00;;;29.69;41.35
11343;BME280;5726;42.160;24.746;2022-08-05T21:58:13;99170.59;;;29.53;41.87
11343;BME280;5726;42.160;24.746;2022-08-05T22:00:39;99174.03;;;29.38;41.78
11343;BME280;5726;42.160;24.746;2022-08-05T22:03:04;99176.31;;;29.43;41.83
11343;BME280;5726;42.160;24.746;2022-08-05T22:05:30;99166.88;;;29.41;42.13
11343;BME280;5726;42.160;24.746;2022-08-05T22:07:55;99168.88;;;29.14;42.84